createdAt,value
2019-04-29T00:01:00.866Z,9.98
2019-04-29T00:03:32.795Z,9.96
2019-04-29T00:06:04.656Z,10.15
2019-04-29T00:08:36.374Z,10.38
2019-04-29T00:11:08.077Z,10.41
2019-04-29T00:13:39.923Z,10.51
2019-04-29T00:16:29.046Z,10.39
2019-04-29T00:19:08.410Z,10.35
2019-04-29T00:21:40.699Z,10.33
2019-04-29T00:24:12.544Z,10.39
2019-04-29T00:26:44.291Z,10.46
2019-04-29T00:29:15.943Z,10.54
2019-04-29T00:31:48.095Z,10.72
2019-04-29T00:34:19.889Z,10.69
2019-04-29T00:36:59.381Z,10.53
2019-04-29T00:39:48.478Z,10.47
2019-04-29T00:42:42.261Z,10.46
2019-04-29T00:45:13.294Z,10.42
2019-04-29T00:47:45.042Z,10.41
2019-04-29T00:50:16.658Z,10.29
2019-04-29T00:52:48.611Z,10.30
2019-04-29T00:55:22.657Z,10.29
2019-04-29T00:57:54.127Z,10.27
2019-04-29T01:00:39.028Z,10.24
2019-04-29T01:03:10.764Z,10.22
2019-04-29T01:05:42.602Z,10.25
2019-04-29T01:08:14.180Z,10.18
2019-04-29T01:10:45.806Z,10.19
2019-04-29T01:13:17.640Z,10.19
2019-04-29T01:15:49.491Z,10.15
2019-04-29T01:18:21.040Z,10.16
2019-04-29T01:20:52.921Z,10.21
2019-04-29T01:23:24.551Z,10.21
2019-04-29T01:26:00.025Z,10.20
2019-04-29T01:28:49.364Z,10.24
2019-04-29T01:31:27.765Z,10.23
2019-04-29T01:34:09.654Z,10.20
2019-04-29T01:36:43.320Z,10.34
2019-04-29T01:39:16.128Z,10.43
2019-04-29T01:42:12.660Z,10.57
2019-04-29T01:44:44.136Z,10.51
2019-04-29T01:47:15.864Z,10.62
2019-04-29T01:49:47.489Z,10.68
2019-04-29T01:52:19.395Z,10.85
2019-04-29T01:54:51.277Z,10.86
2019-04-29T01:57:23.706Z,10.88
2019-04-29T01:59:55.468Z,10.79
2019-04-29T02:02:27.265Z,10.72
2019-04-29T02:04:58.890Z,10.73
2019-04-29T02:07:31.604Z,10.67
2019-04-29T02:10:09.202Z,10.55
2019-04-29T02:12:40.772Z,10.49
2019-04-29T02:15:12.540Z,10.32
2019-04-29T02:17:44.115Z,10.16
2019-04-29T02:20:15.953Z,10.12
2019-04-29T02:23:05.162Z,10.14
2019-04-29T02:25:40.010Z,10.12
2019-04-29T02:28:11.713Z,10.11
2019-04-29T02:30:49.437Z,10.22
2019-04-29T02:33:21.292Z,10.37
2019-04-29T02:35:53.236Z,10.45
2019-04-29T02:38:43.547Z,10.47
2019-04-29T02:41:40.118Z,10.45
2019-04-29T02:44:13.051Z,10.50
2019-04-29T02:46:44.785Z,10.57
2019-04-29T02:49:16.356Z,10.54
2019-04-29T02:51:53.248Z,10.50
2019-04-29T02:54:25.823Z,10.49
2019-04-29T02:57:08.975Z,10.51
2019-04-29T02:59:44.719Z,10.67
2019-04-29T03:02:41.368Z,10.52
2019-04-29T03:05:35.253Z,10.52
2019-04-29T03:08:07.246Z,10.37
2019-04-29T03:10:38.978Z,10.39
2019-04-29T03:13:10.943Z,10.45
2019-04-29T03:15:44.173Z,10.41
2019-04-29T03:18:15.036Z,10.40
2019-04-29T03:20:54.810Z,10.44
2019-04-29T03:23:26.727Z,10.49
2019-04-29T03:25:58.254Z,10.53
2019-04-29T03:28:29.782Z,10.50
2019-04-29T03:31:01.582Z,10.64
2019-04-29T03:33:33.210Z,10.49
2019-04-29T03:36:04.768Z,10.46
2019-04-29T03:38:37.464Z,10.41
2019-04-29T03:41:08.859Z,10.37
2019-04-29T03:43:40.430Z,10.28
2019-04-29T03:46:13.029Z,10.36
2019-04-29T03:48:46.110Z,10.55
2019-04-29T03:51:17.901Z,10.38
2019-04-29T03:53:49.809Z,10.42
2019-04-29T03:56:21.953Z,10.54
2019-04-29T03:58:53.491Z,10.56
2019-04-29T04:01:31.035Z,10.49
2019-04-29T04:04:07.584Z,10.44
2019-04-29T04:06:53.053Z,10.43
2019-04-29T04:09:27.929Z,10.38
2019-04-29T04:11:59.889Z,10.31
2019-04-29T04:14:31.655Z,10.35
2019-04-29T04:17:20.292Z,10.29
2019-04-29T04:19:50.111Z,10.27
2019-04-29T04:22:21.960Z,10.27
2019-04-29T04:24:54.584Z,10.43
2019-04-29T04:27:26.312Z,10.52
2019-04-29T04:29:58.130Z,10.60
2019-04-29T04:32:29.580Z,10.65
2019-04-29T04:35:01.085Z,10.77
2019-04-29T04:37:32.661Z,10.81
2019-04-29T04:40:04.536Z,10.88
2019-04-29T04:42:36.335Z,10.90
2019-04-29T04:45:08.781Z,10.98
2019-04-29T04:47:40.549Z,11.18
2019-04-29T04:50:12.413Z,11.32
2019-04-29T04:52:43.959Z,11.56
2019-04-29T04:55:15.616Z,11.66
2019-04-29T04:57:48.573Z,11.79
2019-04-29T05:00:23.401Z,11.89
2019-04-29T05:02:55.002Z,12.08
2019-04-29T05:05:26.870Z,12.11
2019-04-29T05:07:58.618Z,12.08
2019-04-29T05:10:31.505Z,12.05
2019-04-29T05:13:03.050Z,12.11
2019-04-29T05:15:34.820Z,12.19
2019-04-29T05:18:06.471Z,12.32
2019-04-29T05:20:38.324Z,12.33
2019-04-29T05:23:09.745Z,12.48
2019-04-29T05:25:41.662Z,12.53
2019-04-29T05:28:13.489Z,12.69
2019-04-29T05:30:45.277Z,12.72
2019-04-29T05:33:16.611Z,12.83
2019-04-29T05:36:10.177Z,12.86
2019-04-29T05:38:52.164Z,12.91
2019-04-29T05:41:25.992Z,13.02
2019-04-29T05:44:25.892Z,13.21
2019-04-29T05:47:10.254Z,13.31
2019-04-29T05:49:50.044Z,13.34
2019-04-29T05:52:34.735Z,13.54
2019-04-29T05:55:09.550Z,13.72
2019-04-29T05:57:40.973Z,13.84
2019-04-29T06:00:12.549Z,13.91
2019-04-29T06:02:44.264Z,13.99
2019-04-29T06:05:16.230Z,14.01
2019-04-29T06:07:47.884Z,14.11
2019-04-29T06:10:22.961Z,14.26
2019-04-29T06:12:53.249Z,14.37
2019-04-29T06:15:25.128Z,14.53
2019-04-29T06:17:56.981Z,14.60
2019-04-29T06:20:28.969Z,14.75
2019-04-29T06:23:00.503Z,14.95
2019-04-29T06:25:32.318Z,15.11
2019-04-29T06:28:03.892Z,15.29
2019-04-29T06:30:38.762Z,15.30
2019-04-29T06:33:11.992Z,15.59
2019-04-29T06:35:47.359Z,15.70
2019-04-29T06:38:17.671Z,15.80
2019-04-29T06:40:49.217Z,15.89
2019-04-29T06:43:24.581Z,15.93
2019-04-29T06:45:54.375Z,16.07
2019-04-29T06:48:26.053Z,15.99
2019-04-29T06:50:58.152Z,16.32
2019-04-29T06:53:29.690Z,16.40
2019-04-29T06:56:01.296Z,16.52
2019-04-29T06:58:36.611Z,16.73
2019-04-29T07:01:06.378Z,16.92
2019-04-29T07:03:38.457Z,16.27
2019-04-29T07:06:09.937Z,16.30
2019-04-29T07:08:41.559Z,16.46
2019-04-29T07:11:13.302Z,16.74
2019-04-29T07:13:46.582Z,16.93
2019-04-29T07:16:21.869Z,16.99
2019-04-29T07:18:53.801Z,16.92
2019-04-29T07:21:24.847Z,17.13
2019-04-29T07:23:56.594Z,17.15
2019-04-29T07:26:28.055Z,17.28
2019-04-29T07:28:59.646Z,17.19
2019-04-29T07:31:33.488Z,16.84
2019-04-29T07:34:08.165Z,16.98
2019-04-29T07:36:38.252Z,16.75
2019-04-29T07:39:10.454Z,17.26
2019-04-29T07:41:42.026Z,17.11
2019-04-29T07:44:18.259Z,17.20
2019-04-29T07:46:58.212Z,17.53
2019-04-29T07:49:28.896Z,17.80
2019-04-29T07:52:00.565Z,17.75
2019-04-29T07:54:33.466Z,17.80
2019-04-29T07:57:05.027Z,17.51
2019-04-29T07:59:38.446Z,17.84
2019-04-29T08:02:08.432Z,18.17
2019-04-29T08:04:40.488Z,18.50
2019-04-29T08:07:13.666Z,18.30
2019-04-29T08:09:45.519Z,18.63
2019-04-29T08:12:17.738Z,18.61
2019-04-29T08:14:53.412Z,18.34
2019-04-29T08:17:23.080Z,18.56
2019-04-29T08:19:54.714Z,18.74
2019-04-29T08:22:27.652Z,18.79
2019-04-29T08:25:09.324Z,19.15
2019-04-29T08:27:43.750Z,19.29
2019-04-29T08:30:14.486Z,19.25
2019-04-29T08:32:46.208Z,19.54
2019-04-29T08:35:18.188Z,19.62
2019-04-29T08:37:49.935Z,19.86
2019-04-29T08:40:21.674Z,19.98
2019-04-29T08:42:59.713Z,19.78
2019-04-29T08:45:41.694Z,19.19
2019-04-29T08:48:13.469Z,19.07
2019-04-29T08:50:44.970Z,19.51
2019-04-29T08:53:16.643Z,19.43
2019-04-29T08:55:48.482Z,19.88
2019-04-29T08:58:20.050Z,20.06
2019-04-29T09:00:55.601Z,20.02
2019-04-29T09:03:39.210Z,19.84
2019-04-29T09:06:05.524Z,20.41
2019-04-29T09:08:32.914Z,20.36
2019-04-29T09:11:08.125Z,20.38
2019-04-29T09:13:39.123Z,20.80
2019-04-29T09:16:10.839Z,20.99
2019-04-29T09:18:42.555Z,20.88
2019-04-29T09:21:14.254Z,21.14
2019-04-29T09:23:45.927Z,21.48
2019-04-29T09:26:24.535Z,21.46
2019-04-29T09:28:59.795Z,21.68
2019-04-29T09:31:29.708Z,21.32
2019-04-29T09:34:06.819Z,21.80
2019-04-29T09:36:34.976Z,22.05
2019-04-29T09:39:06.853Z,21.98
2019-04-29T09:41:49.364Z,22.37
2019-04-29T09:44:40.233Z,22.28
2019-04-29T09:47:13.398Z,21.92
2019-04-29T09:49:45.247Z,22.20
2019-04-29T09:52:17.130Z,22.27
2019-04-29T09:54:48.703Z,21.97
2019-04-29T09:57:20.432Z,22.28
2019-04-29T10:00:00.154Z,22.02
2019-04-29T10:02:44.486Z,22.60
2019-04-29T10:05:36.823Z,22.75
2019-04-29T10:08:08.521Z,23.38
2019-04-29T10:10:40.509Z,23.42
2019-04-29T10:13:12.313Z,22.68
2019-04-29T10:16:09.351Z,22.44
2019-04-29T10:19:18.501Z,22.86
2019-04-29T10:21:50.307Z,23.51
2019-04-29T10:24:22.036Z,23.96
2019-04-29T10:26:53.890Z,23.25
2019-04-29T10:29:27.513Z,22.74
2019-04-29T10:32:02.490Z,22.97
2019-04-29T10:34:33.102Z,23.29
2019-04-29T10:37:05.304Z,23.29
2019-04-29T10:39:48.459Z,23.21
2019-04-29T10:42:26.639Z,22.80
2019-04-29T10:45:20.207Z,22.29
2019-04-29T10:48:09.497Z,22.07
2019-04-29T10:50:42.586Z,21.82
2019-04-29T10:53:15.508Z,21.67
2019-04-29T10:55:47.626Z,21.61
2019-04-29T10:58:22.523Z,21.48
2019-04-29T11:02:05.088Z,21.45
2019-04-29T11:04:36.163Z,21.70
2019-04-29T11:07:35.088Z,21.73
2019-04-29T11:10:25.340Z,21.89
2019-04-29T11:13:06.049Z,22.23
2019-04-29T11:15:37.977Z,22.48
2019-04-29T11:18:09.710Z,22.22
2019-04-29T11:20:44.478Z,22.12
2019-04-29T11:23:31.014Z,22.52
2019-04-29T11:26:29.204Z,23.15
2019-04-29T11:29:01.142Z,23.82
2019-04-29T11:31:34.250Z,24.31
2019-04-29T11:34:27.937Z,24.28
2019-04-29T11:36:59.898Z,24.74
2019-04-29T11:39:31.816Z,24.61
2019-04-29T11:42:05.559Z,24.61
2019-04-29T11:44:38.666Z,24.30
2019-04-29T11:47:10.420Z,24.38
2019-04-29T11:49:48.236Z,24.60
2019-04-29T11:52:23.777Z,24.31
2019-04-29T11:54:53.512Z,24.60
2019-04-29T11:57:41.417Z,24.80
2019-04-29T12:00:45.821Z,25.64
2019-04-29T12:03:19.960Z,26.34
2019-04-29T12:06:02.924Z,27.15
2019-04-29T12:08:33.524Z,27.61
2019-04-29T12:11:07.516Z,27.57
2019-04-29T12:14:12.635Z,28.45
2019-04-29T12:16:58.472Z,29.06
2019-04-29T12:19:33.204Z,29.51
2019-04-29T12:22:08.598Z,30.07
2019-04-29T12:24:38.438Z,30.21
2019-04-29T12:27:14.671Z,30.13
2019-04-29T12:29:43.236Z,30.55
2019-04-29T12:32:46.253Z,31.36
2019-04-29T12:35:58.692Z,31.55
2019-04-29T12:38:49.630Z,30.15
2019-04-29T12:41:52.461Z,28.03
2019-04-29T12:44:35.343Z,27.39
2019-04-29T12:47:09.582Z,27.07
2019-04-29T12:49:42.364Z,27.49
2019-04-29T12:52:15.672Z,28.71
2019-04-29T12:54:47.718Z,28.62
2019-04-29T12:57:23.507Z,28.28
2019-04-29T12:59:54.831Z,28.15
2019-04-29T13:03:00.280Z,29.50
2019-04-29T13:05:42.752Z,29.08
2019-04-29T13:08:19.147Z,28.55
2019-04-29T13:10:55.562Z,27.89
2019-04-29T13:13:27.384Z,26.46
2019-04-29T13:16:24.147Z,26.46
2019-04-29T13:19:20.113Z,25.91
2019-04-29T13:21:48.595Z,24.60
2019-04-29T13:24:26.891Z,24.41
2019-04-29T13:26:53.690Z,23.95
2019-04-29T13:29:27.770Z,24.00
2019-04-29T13:32:01.603Z,23.96
2019-04-29T13:34:37.015Z,23.65
2019-04-29T13:37:18.278Z,23.61
2019-04-29T13:39:42.000Z,23.35
2019-04-29T13:42:15.731Z,23.43
2019-04-29T13:45:05.057Z,23.41
2019-04-29T13:47:50.375Z,23.43
2019-04-29T13:50:39.305Z,24.86
2019-04-29T13:53:04.862Z,25.17
2019-04-29T13:55:47.623Z,25.51
2019-04-29T13:58:09.639Z,25.55
2019-04-29T14:00:59.843Z,26.44
2019-04-29T14:03:35.833Z,26.89
2019-04-29T14:06:08.434Z,27.39
2019-04-29T14:08:40.201Z,27.95
2019-04-29T14:11:12.107Z,27.80
2019-04-29T14:13:48.219Z,26.59
2019-04-29T14:16:19.343Z,26.59
2019-04-29T14:18:51.482Z,28.45
2019-04-29T14:21:25.824Z,28.45
2019-04-29T14:23:56.558Z,29.91
2019-04-29T14:26:29.606Z,31.38
2019-04-29T14:29:01.509Z,32.03
2019-04-29T14:31:33.190Z,32.16
2019-04-29T14:34:20.611Z,32.31
2019-04-29T14:36:55.741Z,32.11
2019-04-29T14:39:36.811Z,31.73
2019-04-29T14:42:03.617Z,31.75
2019-04-29T14:45:02.840Z,30.62
2019-04-29T14:47:45.121Z,29.80
2019-04-29T14:50:20.347Z,29.16
2019-04-29T14:52:50.681Z,28.92
2019-04-29T14:55:25.121Z,29.53
2019-04-29T14:57:56.802Z,29.30
2019-04-29T15:01:02.808Z,28.07
2019-04-29T15:03:52.891Z,27.95
2019-04-29T15:06:24.432Z,28.07
2019-04-29T15:08:56.061Z,26.27
2019-04-29T15:11:32.630Z,26.27
2019-04-29T15:14:24.281Z,25.42
2019-04-29T15:17:04.463Z,24.69
2019-04-29T15:19:55.868Z,23.87
2019-04-29T15:22:30.470Z,23.62
2019-04-29T15:25:02.104Z,23.21
2019-04-29T15:27:33.918Z,22.71
2019-04-29T15:30:06.572Z,22.59
2019-04-29T15:32:38.436Z,22.27
2019-04-29T15:35:10.333Z,22.24
2019-04-29T15:37:42.143Z,22.14
2019-04-29T15:40:14.886Z,22.03
2019-04-29T15:42:50.978Z,21.90
2019-04-29T15:45:21.674Z,21.81
2019-04-29T15:47:53.304Z,21.78
2019-04-29T15:50:25.190Z,21.66
2019-04-29T15:52:58.789Z,21.62
2019-04-29T15:55:30.521Z,21.45
2019-04-29T15:58:02.795Z,21.37
2019-04-29T16:00:37.785Z,21.45
2019-04-29T16:03:08.009Z,21.46
2019-04-29T16:06:20.534Z,21.42
2019-04-29T16:12:13.926Z,21.30
2019-04-29T16:14:38.903Z,21.42
2019-04-29T16:17:10.399Z,21.14
2019-04-29T16:19:42.223Z,21.02
2019-04-29T16:22:19.777Z,20.85
2019-04-29T16:24:48.063Z,20.79
2019-04-29T16:27:19.421Z,20.86
2019-04-29T16:29:53.651Z,20.80
2019-04-29T16:32:32.980Z,20.81
2019-04-29T16:35:04.738Z,20.81
2019-04-29T16:37:36.410Z,20.80
2019-04-29T16:40:08.525Z,20.77
2019-04-29T16:42:56.515Z,20.72
2019-04-29T16:45:51.757Z,20.69
2019-04-29T16:48:22.110Z,20.64
2019-04-29T16:50:54.004Z,20.55
2019-04-29T16:53:26.290Z,20.47
2019-04-29T16:55:58.532Z,20.43
2019-04-29T16:58:30.282Z,20.34
2019-04-29T17:01:02.983Z,20.13
2019-04-29T17:03:34.864Z,20.04
2019-04-29T17:06:09.209Z,19.86
2019-04-29T17:09:22.642Z,19.83
2019-04-29T17:11:50.329Z,19.72
2019-04-29T17:14:22.323Z,19.60
2019-04-29T17:16:53.859Z,19.44
2019-04-29T17:19:25.979Z,19.34
2019-04-29T17:22:24.089Z,19.17
2019-04-29T17:24:31.426Z,19.19
2019-04-29T17:27:21.561Z,19.05
2019-04-29T17:30:24.681Z,18.91
2019-04-29T17:33:04.411Z,18.80
2019-04-29T17:35:13.990Z,21.47
2019-04-29T17:35:37.905Z,18.61
2019-04-29T17:38:08.531Z,18.39
2019-04-29T17:40:50.636Z,18.21
2019-04-29T17:43:44.941Z,18.04
2019-04-29T17:46:47.918Z,18.04
2019-04-29T17:49:38.349Z,17.89
2019-04-29T17:52:17.922Z,17.74
2019-04-29T17:54:51.929Z,17.65
2019-04-29T17:57:47.070Z,17.53
2019-04-29T18:00:56.172Z,17.41
2019-04-29T18:03:49.881Z,17.46
2019-04-29T18:06:28.333Z,17.24
2019-04-29T18:09:21.760Z,17.09
2019-04-29T18:11:57.566Z,16.96
2019-04-29T18:14:36.576Z,16.82
2019-04-29T18:17:00.976Z,16.64
2019-04-29T18:19:51.854Z,16.61
2019-04-29T18:22:42.232Z,16.56
2019-04-29T18:25:30.410Z,16.41
2019-04-29T18:27:56.561Z,16.41
2019-04-29T18:30:35.903Z,16.53
2019-04-29T18:33:01.367Z,16.50
2019-04-29T18:35:33.133Z,16.52
2019-04-29T18:38:07.629Z,16.23
2019-04-29T18:40:41.937Z,15.86
2019-04-29T18:43:12.564Z,15.89
2019-04-29T18:45:55.509Z,16.04
2019-04-29T18:48:21.490Z,15.93
2019-04-29T18:50:51.645Z,15.78
2019-04-29T18:53:23.382Z,15.65
2019-04-29T18:55:55.236Z,15.49
2019-04-29T18:58:26.789Z,15.37
2019-04-29T19:00:58.494Z,15.36
2019-04-29T19:03:55.746Z,15.23
2019-04-29T19:06:27.796Z,15.15
2019-04-29T19:09:01.779Z,15.09
2019-04-29T19:11:35.198Z,15.01
2019-04-29T19:14:07.131Z,14.90
2019-04-29T19:16:39.539Z,14.85
2019-04-29T19:19:12.312Z,14.77
2019-04-29T19:21:45.515Z,14.72
2019-04-29T19:24:17.378Z,14.63
2019-04-29T19:26:49.239Z,14.60
2019-04-29T19:29:21.010Z,14.55
2019-04-29T19:31:52.723Z,14.55
2019-04-29T19:34:25.213Z,14.45
2019-04-29T19:36:59.352Z,14.45
2019-04-29T19:39:31.006Z,14.37
2019-04-29T19:42:03.212Z,14.36
2019-04-29T19:44:36.751Z,14.34
2019-04-29T19:47:10.959Z,14.39
2019-04-29T19:49:44.694Z,14.38
2019-04-29T19:52:28.039Z,14.32
2019-04-29T19:54:49.939Z,14.16
2019-04-29T19:57:21.824Z,14.25
2019-04-29T19:59:56.219Z,14.33
2019-04-29T20:02:27.286Z,14.38
2019-04-29T20:05:39.685Z,14.50
2019-04-29T20:08:13.975Z,14.45
2019-04-29T20:10:48.185Z,14.18
2019-04-29T20:13:17.222Z,14.19
2019-04-29T20:16:09.393Z,14.32
2019-04-29T20:18:58.638Z,14.41
2019-04-29T20:21:28.419Z,14.39
2019-04-29T20:23:58.346Z,14.35
2019-04-29T20:26:31.478Z,14.25
2019-04-29T20:29:06.999Z,14.24
2019-04-29T20:31:38.964Z,14.13
2019-04-29T20:34:10.819Z,14.07
2019-04-29T20:36:43.202Z,14.08
2019-04-29T20:39:22.625Z,14.05
2019-04-29T20:41:49.285Z,14.06
2019-04-29T20:44:21.387Z,13.96
2019-04-29T20:47:14.046Z,13.94
2019-04-29T20:49:30.404Z,13.86
2019-04-29T20:52:08.281Z,13.84
2019-04-29T20:54:40.228Z,13.83
2019-04-29T20:57:18.036Z,13.86
2019-04-29T20:59:48.875Z,13.84
2019-04-29T21:02:30.031Z,13.78
2019-04-29T21:04:53.257Z,13.80
2019-04-29T21:07:25.724Z,13.88
2019-04-29T21:10:00.034Z,13.85
2019-04-29T21:12:48.339Z,13.83
2019-04-29T21:15:29.195Z,13.86
2019-04-29T21:18:01.069Z,13.90
2019-04-29T21:20:32.777Z,13.93
2019-04-29T21:23:04.575Z,13.87
2019-04-29T21:25:37.164Z,13.90
2019-04-29T21:28:08.941Z,13.95
2019-04-29T21:30:42.752Z,13.96
2019-04-29T21:33:20.876Z,14.03
2019-04-29T21:36:05.423Z,14.08
2019-04-29T21:39:08.371Z,14.12
2019-04-29T21:41:54.639Z,14.20
2019-04-29T21:44:27.516Z,14.29
2019-04-29T21:46:59.782Z,14.35
2019-04-29T21:49:29.117Z,14.43
2019-04-29T21:52:00.992Z,14.40
2019-04-29T21:54:32.825Z,14.47
2019-04-29T21:57:05.777Z,14.47
2019-04-29T21:59:36.644Z,14.38
2019-04-29T22:02:11.442Z,14.36
2019-04-29T22:04:42.910Z,14.23
2019-04-29T22:07:15.640Z,14.30
2019-04-29T22:09:50.266Z,14.22
2019-04-29T22:12:21.508Z,14.27
2019-04-29T22:14:54.206Z,14.23
2019-04-29T22:17:32.799Z,14.27
2019-04-29T22:20:03.927Z,14.30
2019-04-29T22:22:36.596Z,14.37
2019-04-29T22:25:10.625Z,14.39
2019-04-29T22:27:45.383Z,14.42
2019-04-29T22:30:18.652Z,14.48
2019-04-29T22:32:51.827Z,14.63
2019-04-29T22:35:25.211Z,14.66
2019-04-29T22:37:58.279Z,14.68
2019-04-29T22:40:34.160Z,14.65
2019-04-29T22:43:25.449Z,14.56
2019-04-29T22:46:04.798Z,14.52
2019-04-29T22:48:34.972Z,14.45
2019-04-29T22:51:10.190Z,14.45
2019-04-29T22:53:46.747Z,14.30
2019-04-29T22:56:15.974Z,14.24
2019-04-29T22:58:47.940Z,14.10
2019-04-29T23:01:20.731Z,13.97
2019-04-29T23:03:52.469Z,13.93
2019-04-29T23:06:25.881Z,13.87
2019-04-29T23:08:57.586Z,13.81
2019-04-29T23:11:29.428Z,13.79
2019-04-29T23:14:01.740Z,13.78
2019-04-29T23:16:35.781Z,13.75
2019-04-29T23:19:09.897Z,13.63
2019-04-29T23:22:10.717Z,13.56
2019-04-29T23:24:59.779Z,13.54
2019-04-29T23:27:31.502Z,13.50
2019-04-29T23:30:03.307Z,13.36
2019-04-29T23:32:35.288Z,13.42
2019-04-29T23:35:09.658Z,13.42
2019-04-29T23:37:40.886Z,13.35
2019-04-29T23:40:12.706Z,13.37
2019-04-29T23:42:47.957Z,13.34
2019-04-29T23:45:21.439Z,13.43
2019-04-29T23:47:51.722Z,13.37
2019-04-29T23:50:23.298Z,13.36
2019-04-29T23:52:55.681Z,13.37
2019-04-29T23:55:29.177Z,13.41
2019-04-29T23:58:22.744Z,13.40
